sensor_id;sensor_type;location;lat;lon;timestamp;pressure;altitude;pressure_sealevel;temperature;humidity
7433;BME280;32233;49.500;7.764;2023-04-19T00:00:35;99144.88;;;8.71;89.31
7433;BME280;32233;49.500;7.764;2023-04-19T00:03:02;99141.28;;;8.64;89.36
7433;BME280;32233;49.500;7.764;2023-04-19T00:05:29;99145.22;;;8.68;90.06
7433;BME280;32233;49.500;7.764;2023-04-19T00:07:55;99139.19;;;8.59;90.45
7433;BME280;32233;49.500;7.764;2023-04-19T00:10:22;99133.75;;;8.53;90.57
7433;BME280;32233;49.500;7.764;2023-04-19T00:12:48;99129.81;;;8.49;91.87
7433;BME280;32233;49.500;7.764;2023-04-19T00:15:15;99136.88;;;8.56;91.26
7433;BME280;32233;49.500;7.764;2023-04-19T00:17:41;99133.94;;;8.51;90.90
7433;BME280;32233;49.500;7.764;2023-04-19T00:20:09;99135.28;;;8.47;91.36
7433;BME280;32233;49.500;7.764;2023-04-19T00:22:35;99127.72;;;8.44;91.75
7433;BME280;32233;49.500;7.764;2023-04-19T00:25:02;99131.81;;;8.47;91.02
7433;BME280;32233;49.500;7.764;2023-04-19T00:27:29;99131.53;;;8.33;92.39
7433;BME280;32233;49.500;7.764;2023-04-19T00:29:56;99137.06;;;8.55;91.06
7433;BME280;32233;49.500;7.764;2023-04-19T00:32:25;99131.16;;;8.44;91.76
7433;BME280;32233;49.500;7.764;2023-04-19T00:34:52;99128.69;;;8.35;92.36
7433;BME280;32233;49.500;7.764;2023-04-19T00:37:20;99138.44;;;8.42;91.95
7433;BME280;32233;49.500;7.764;2023-04-19T00:39:46;99128.53;;;8.44;91.19
7433;BME280;32233;49.500;7.764;2023-04-19T00:42:13;99125.25;;;8.34;91.59
7433;BME280;32233;49.500;7.764;2023-04-19T00:44:40;99124.59;;;8.40;91.69
7433;BME280;32233;49.500;7.764;2023-04-19T00:47:07;99119.69;;;8.29;92.38
7433;BME280;32233;49.500;7.764;2023-04-19T00:49:34;99122.81;;;8.41;92.09
7433;BME280;32233;49.500;7.764;2023-04-19T00:52:01;99117.38;;;8.26;92.19
7433;BME280;32233;49.500;7.764;2023-04-19T00:54:27;99118.22;;;8.18;92.24
7433;BME280;32233;49.500;7.764;2023-04-19T00:56:55;99121.69;;;8.19;93.36
7433;BME280;32233;49.500;7.764;2023-04-19T00:59:23;99124.63;;;8.16;93.58
7433;BME280;32233;49.500;7.764;2023-04-19T01:01:50;99117.06;;;8.21;94.07
7433;BME280;32233;49.500;7.764;2023-04-19T01:04:17;99119.06;;;8.11;93.51
7433;BME280;32233;49.500;7.764;2023-04-19T01:06:45;99112.78;;;8.12;93.73
7433;BME280;32233;49.500;7.764;2023-04-19T01:09:11;99118.72;;;8.22;93.30
7433;BME280;32233;49.500;7.764;2023-04-19T01:11:39;99114.28;;;8.14;93.94
7433;BME280;32233;49.500;7.764;2023-04-19T01:14:08;99118.44;;;8.09;94.92
7433;BME280;32233;49.500;7.764;2023-04-19T01:16:36;99113.31;;;7.99;94.70
7433;BME280;32233;49.500;7.764;2023-04-19T01:19:04;99110.84;;;8.06;94.60
7433;BME280;32233;49.500;7.764;2023-04-19T01:21:31;99110.38;;;7.94;95.27
7433;BME280;32233;49.500;7.764;2023-04-19T01:23:57;99103.47;;;8.01;95.18
7433;BME280;32233;49.500;7.764;2023-04-19T01:26:24;99101.81;;;8.08;94.46
7433;BME280;32233;49.500;7.764;2023-04-19T01:28:51;99104.94;;;7.95;94.64
7433;BME280;32233;49.500;7.764;2023-04-19T01:31:18;99097.72;;;7.98;95.24
7433;BME280;32233;49.500;7.764;2023-04-19T01:33:44;99102.78;;;7.99;94.78
7433;BME280;32233;49.500;7.764;2023-04-19T01:36:11;99104.09;;;8.03;95.09
7433;BME280;32233;49.500;7.764;2023-04-19T01:38:40;99095.22;;;8.12;94.55
7433;BME280;32233;49.500;7.764;2023-04-19T01:41:08;99088.63;;;8.16;93.37
7433;BME280;32233;49.500;7.764;2023-04-19T01:43:34;99092.78;;;7.94;94.18
7433;BME280;32233;49.500;7.764;2023-04-19T01:46:01;99086.19;;;7.99;95.37
7433;BME280;32233;49.500;7.764;2023-04-19T01:48:28;99089.31;;;7.94;95.22
7433;BME280;32233;49.500;7.764;2023-04-19T01:50:54;99093.78;;;7.93;95.43
7433;BME280;32233;49.500;7.764;2023-04-19T01:53:21;99085.22;;;7.83;95.24
7433;BME280;32233;49.500;7.764;2023-04-19T01:55:48;99085.69;;;7.95;95.21
7433;BME280;32233;49.500;7.764;2023-04-19T01:58:15;99083.56;;;7.99;94.16
7433;BME280;32233;49.500;7.764;2023-04-19T02:00:42;99077.50;;;7.82;95.37
7433;BME280;32233;49.500;7.764;2023-04-19T02:03:09;99074.38;;;7.86;95.33
7433;BME280;32233;49.500;7.764;2023-04-19T02:05:38;99075.03;;;7.88;95.85
7433;BME280;32233;49.500;7.764;2023-04-19T02:08:04;99068.28;;;7.86;94.93
7433;BME280;32233;49.500;7.764;2023-04-19T02:10:31;99071.84;;;8.09;94.43
7433;BME280;32233;49.500;7.764;2023-04-19T02:12:57;99065.84;;;7.84;94.41
7433;BME280;32233;49.500;7.764;2023-04-19T02:15:25;99065.00;;;7.92;94.44
7433;BME280;32233;49.500;7.764;2023-04-19T02:17:52;99061.84;;;7.97;94.91
7433;BME280;32233;49.500;7.764;2023-04-19T02:20:18;99064.03;;;7.77;96.35
7433;BME280;32233;49.500;7.764;2023-04-19T02:22:47;99057.97;;;7.76;96.60
7433;BME280;32233;49.500;7.764;2023-04-19T02:25:13;99054.34;;;7.77;96.89
7433;BME280;32233;49.500;7.764;2023-04-19T02:27:41;99049.09;;;7.69;96.82
7433;BME280;32233;49.500;7.764;2023-04-19T02:30:08;99049.69;;;7.87;96.24
7433;BME280;32233;49.500;7.764;2023-04-19T02:32:35;99054.16;;;7.79;95.96
7433;BME280;32233;49.500;7.764;2023-04-19T02:35:05;99054.84;;;7.73;97.12
7433;BME280;32233;49.500;7.764;2023-04-19T02:37:31;99056.63;;;7.80;96.66
7433;BME280;32233;49.500;7.764;2023-04-19T02:39:58;99056.75;;;7.87;96.83
7433;BME280;32233;49.500;7.764;2023-04-19T02:42:27;99054.03;;;7.72;96.92
7433;BME280;32233;49.500;7.764;2023-04-19T02:44:54;99052.22;;;7.73;97.61
7433;BME280;32233;49.500;7.764;2023-04-19T02:47:22;99051.38;;;7.80;97.15
7433;BME280;32233;49.500;7.764;2023-04-19T02:49:49;99055.78;;;7.96;95.93
7433;BME280;32233;49.500;7.764;2023-04-19T02:52:16;99056.63;;;7.88;95.92
7433;BME280;32233;49.500;7.764;2023-04-19T02:54:43;99060.38;;;7.94;95.25
7433;BME280;32233;49.500;7.764;2023-04-19T02:57:10;99058.44;;;7.80;96.45
7433;BME280;32233;49.500;7.764;2023-04-19T02:59:39;99059.91;;;7.82;96.32
7433;BME280;32233;49.500;7.764;2023-04-19T03:02:05;99053.00;;;7.81;96.82
7433;BME280;32233;49.500;7.764;2023-04-19T03:04:32;99053.97;;;7.88;95.08
7433;BME280;32233;49.500;7.764;2023-04-19T03:06:59;99049.06;;;7.85;96.77
7433;BME280;32233;49.500;7.764;2023-04-19T03:09:26;99051.19;;;7.82;95.83
7433;BME280;32233;49.500;7.764;2023-04-19T03:11:52;99050.06;;;7.76;96.43
7433;BME280;32233;49.500;7.764;2023-04-19T03:14:19;99048.34;;;7.91;96.15
7433;BME280;32233;49.500;7.764;2023-04-19T03:16:46;99053.16;;;7.88;96.40
7433;BME280;32233;49.500;7.764;2023-04-19T03:19:12;99047.41;;;7.84;95.77
7433;BME280;32233;49.500;7.764;2023-04-19T03:21:45;99039.00;;;7.89;96.19
7433;BME280;32233;49.500;7.764;2023-04-19T03:24:12;99042.78;;;7.86;96.08
7433;BME280;32233;49.500;7.764;2023-04-19T03:26:45;99038.00;;;7.90;95.77
7433;BME280;32233;49.500;7.764;2023-04-19T03:29:12;99040.47;;;7.91;95.95
7433;BME280;32233;49.500;7.764;2023-04-19T03:31:50;99036.38;;;7.89;95.69
7433;BME280;32233;49.500;7.764;2023-04-19T03:34:17;99037.84;;;7.83;96.58
7433;BME280;32233;49.500;7.764;2023-04-19T03:36:46;99035.59;;;7.80;96.64
7433;BME280;32233;49.500;7.764;2023-04-19T03:39:13;99028.81;;;7.86;96.53
7433;BME280;32233;49.500;7.764;2023-04-19T03:41:42;99031.94;;;7.81;97.62
7433;BME280;32233;49.500;7.764;2023-04-19T03:44:37;99031.44;;;7.86;96.42
7433;BME280;32233;49.500;7.764;2023-04-19T03:47:06;99035.88;;;7.85;96.71
7433;BME280;32233;49.500;7.764;2023-04-19T03:49:38;99029.13;;;7.83;96.96
7433;BME280;32233;49.500;7.764;2023-04-19T03:52:05;99021.44;;;7.81;96.59
7433;BME280;32233;49.500;7.764;2023-04-19T03:54:32;99023.88;;;7.83;96.87
7433;BME280;32233;49.500;7.764;2023-04-19T03:57:00;99019.31;;;7.77;97.19
7433;BME280;32233;49.500;7.764;2023-04-19T03:59:27;99020.63;;;7.73;97.32
7433;BME280;32233;49.500;7.764;2023-04-19T04:01:54;99017.34;;;7.62;98.62
7433;BME280;32233;49.500;7.764;2023-04-19T04:04:21;99019.34;;;7.60;98.41
7433;BME280;32233;49.500;7.764;2023-04-19T04:06:48;99027.72;;;7.72;98.25
7433;BME280;32233;49.500;7.764;2023-04-19T04:09:15;99019.94;;;7.79;97.83
7433;BME280;32233;49.500;7.764;2023-04-19T04:11:42;99024.59;;;7.68;97.96
7433;BME280;32233;49.500;7.764;2023-04-19T04:14:09;99023.91;;;7.66;98.00
7433;BME280;32233;49.500;7.764;2023-04-19T04:16:37;99021.16;;;7.68;99.04
7433;BME280;32233;49.500;7.764;2023-04-19T04:19:04;99028.53;;;7.73;98.10
7433;BME280;32233;49.500;7.764;2023-04-19T04:21:34;99017.00;;;7.74;98.57
7433;BME280;32233;49.500;7.764;2023-04-19T04:24:02;99023.78;;;7.68;98.63
7433;BME280;32233;49.500;7.764;2023-04-19T04:26:37;99017.31;;;7.79;97.61
7433;BME280;32233;49.500;7.764;2023-04-19T04:29:26;99019.44;;;7.75;98.05
7433;BME280;32233;49.500;7.764;2023-04-19T04:31:54;99026.69;;;7.81;98.45
7433;BME280;32233;49.500;7.764;2023-04-19T04:34:26;99011.22;;;7.78;98.08
7433;BME280;32233;49.500;7.764;2023-04-19T04:37:02;99023.63;;;7.61;99.00
7433;BME280;32233;49.500;7.764;2023-04-19T04:39:29;99011.94;;;7.64;98.33
7433;BME280;32233;49.500;7.764;2023-04-19T04:41:56;99020.34;;;7.59;99.13
7433;BME280;32233;49.500;7.764;2023-04-19T04:44:26;99014.75;;;7.54;99.42
7433;BME280;32233;49.500;7.764;2023-04-19T04:46:53;99021.00;;;7.45;100.00
7433;BME280;32233;49.500;7.764;2023-04-19T04:49:24;99014.09;;;7.60;99.38
7433;BME280;32233;49.500;7.764;2023-04-19T04:51:50;99017.03;;;7.65;99.76
7433;BME280;32233;49.500;7.764;2023-04-19T04:54:18;99018.34;;;7.61;99.88
7433;BME280;32233;49.500;7.764;2023-04-19T04:56:46;99025.59;;;7.67;99.44
7433;BME280;32233;49.500;7.764;2023-04-19T04:59:14;99029.03;;;7.68;99.31
7433;BME280;32233;49.500;7.764;2023-04-19T05:01:43;99025.72;;;7.74;99.15
7433;BME280;32233;49.500;7.764;2023-04-19T05:04:11;99024.59;;;7.68;99.43
7433;BME280;32233;49.500;7.764;2023-04-19T05:06:37;99027.03;;;7.78;98.87
7433;BME280;32233;49.500;7.764;2023-04-19T05:09:08;99030.66;;;7.77;99.23
7433;BME280;32233;49.500;7.764;2023-04-19T05:11:35;99025.06;;;7.72;98.96
7433;BME280;32233;49.500;7.764;2023-04-19T05:14:02;99030.63;;;7.85;98.38
7433;BME280;32233;49.500;7.764;2023-04-19T05:16:31;99025.03;;;7.88;98.06
7433;BME280;32233;49.500;7.764;2023-04-19T05:18:58;99031.25;;;7.87;97.84
7433;BME280;32233;49.500;7.764;2023-04-19T05:21:27;99029.13;;;7.91;98.42
7433;BME280;32233;49.500;7.764;2023-04-19T05:23:54;99030.88;;;8.07;97.34
7433;BME280;32233;49.500;7.764;2023-04-19T05:26:22;99029.28;;;7.89;97.92
7433;BME280;32233;49.500;7.764;2023-04-19T05:28:51;99029.81;;;7.85;98.04
7433;BME280;32233;49.500;7.764;2023-04-19T05:31:28;99035.31;;;8.06;97.75
7433;BME280;32233;49.500;7.764;2023-04-19T05:34:09;99035.09;;;8.16;97.26
7433;BME280;32233;49.500;7.764;2023-04-19T05:36:35;99039.94;;;8.04;97.40
7433;BME280;32233;49.500;7.764;2023-04-19T05:39:03;99038.91;;;8.13;97.23
7433;BME280;32233;49.500;7.764;2023-04-19T05:41:29;99035.59;;;8.19;96.31
7433;BME280;32233;49.500;7.764;2023-04-19T05:43:56;99029.53;;;8.11;97.16
7433;BME280;32233;49.500;7.764;2023-04-19T05:46:23;99030.88;;;8.07;97.67
7433;BME280;32233;49.500;7.764;2023-04-19T05:48:51;99031.66;;;8.15;97.56
7433;BME280;32233;49.500;7.764;2023-04-19T05:51:46;99025.06;;;8.19;97.24
7433;BME280;32233;49.500;7.764;2023-04-19T05:54:33;99032.63;;;8.23;96.50
7433;BME280;32233;49.500;7.764;2023-04-19T05:57:02;99018.81;;;8.21;97.50
7433;BME280;32233;49.500;7.764;2023-04-19T05:59:29;99032.38;;;8.32;96.67
7433;BME280;32233;49.500;7.764;2023-04-19T06:01:55;99034.97;;;8.49;95.93
7433;BME280;32233;49.500;7.764;2023-04-19T06:04:22;99030.06;;;8.46;96.73
7433;BME280;32233;49.500;7.764;2023-04-19T06:06:49;99025.69;;;8.61;95.33
7433;BME280;32233;49.500;7.764;2023-04-19T06:09:16;99026.72;;;8.52;95.76
7433;BME280;32233;49.500;7.764;2023-04-19T06:11:44;99026.63;;;8.68;95.68
7433;BME280;32233;49.500;7.764;2023-04-19T06:14:17;99027.75;;;8.97;94.67
7433;BME280;32233;49.500;7.764;2023-04-19T06:16:44;99025.19;;;9.26;91.99
7433;BME280;32233;49.500;7.764;2023-04-19T06:19:11;99036.78;;;9.40;92.00
7433;BME280;32233;49.500;7.764;2023-04-19T06:21:38;99031.38;;;9.18;91.70
7433;BME280;32233;49.500;7.764;2023-04-19T06:24:05;99035.28;;;9.90;89.20
7433;BME280;32233;49.500;7.764;2023-04-19T06:26:32;99036.06;;;11.35;82.28
7433;BME280;32233;49.500;7.764;2023-04-19T06:28:58;99028.03;;;11.01;79.98
7433;BME280;32233;49.500;7.764;2023-04-19T06:31:25;99039.25;;;10.45;83.67
7433;BME280;32233;49.500;7.764;2023-04-19T06:33:52;99041.38;;;9.90;86.62
7433;BME280;32233;49.500;7.764;2023-04-19T06:36:18;99038.94;;;9.89;87.62
7433;BME280;32233;49.500;7.764;2023-04-19T06:38:45;99047.75;;;9.96;86.99
7433;BME280;32233;49.500;7.764;2023-04-19T06:41:12;99047.56;;;9.83;88.24
7433;BME280;32233;49.500;7.764;2023-04-19T06:43:38;99049.84;;;9.86;87.83
7433;BME280;32233;49.500;7.764;2023-04-19T06:46:06;99035.38;;;9.97;88.04
7433;BME280;32233;49.500;7.764;2023-04-19T06:48:33;99048.03;;;10.01;88.10
7433;BME280;32233;49.500;7.764;2023-04-19T06:51:00;99054.31;;;10.00;86.55
7433;BME280;32233;49.500;7.764;2023-04-19T06:53:27;99050.38;;;9.81;88.45
7433;BME280;32233;49.500;7.764;2023-04-19T06:56:01;99048.91;;;9.79;89.46
7433;BME280;32233;49.500;7.764;2023-04-19T06:58:28;99044.53;;;9.71;89.55
7433;BME280;32233;49.500;7.764;2023-04-19T07:00:54;99046.47;;;10.07;88.51
7433;BME280;32233;49.500;7.764;2023-04-19T07:03:21;99043.91;;;9.69;89.30
7433;BME280;32233;49.500;7.764;2023-04-19T07:05:48;99055.31;;;9.84;89.24
7433;BME280;32233;49.500;7.764;2023-04-19T07:08:14;99037.16;;;9.66;89.89
7433;BME280;32233;49.500;7.764;2023-04-19T07:10:41;99037.47;;;9.86;89.42
7433;BME280;32233;49.500;7.764;2023-04-19T07:13:11;99037.34;;;10.24;88.70
7433;BME280;32233;49.500;7.764;2023-04-19T07:15:38;99028.59;;;10.53;86.47
7433;BME280;32233;49.500;7.764;2023-04-19T07:18:05;99026.03;;;11.03;83.77
7433;BME280;32233;49.500;7.764;2023-04-19T07:20:32;99019.66;;;12.71;75.52
7433;BME280;32233;49.500;7.764;2023-04-19T07:22:59;99023.75;;;13.79;67.97
7433;BME280;32233;49.500;7.764;2023-04-19T07:25:26;99020.72;;;13.76;68.35
7433;BME280;32233;49.500;7.764;2023-04-19T07:27:53;99018.66;;;13.05;70.63
7433;BME280;32233;49.500;7.764;2023-04-19T07:30:20;99010.91;;;15.54;62.20
7433;BME280;32233;49.500;7.764;2023-04-19T07:32:46;99010.75;;;15.93;59.08
7433;BME280;32233;49.500;7.764;2023-04-19T07:35:13;99015.22;;;14.74;61.72
7433;BME280;32233;49.500;7.764;2023-04-19T07:37:40;99014.41;;;13.37;68.21
7433;BME280;32233;49.500;7.764;2023-04-19T07:40:07;99013.75;;;13.02;69.49
7433;BME280;32233;49.500;7.764;2023-04-19T07:42:34;99019.47;;;12.18;73.04
7433;BME280;32233;49.500;7.764;2023-04-19T07:45:01;99014.81;;;11.29;78.93
7433;BME280;32233;49.500;7.764;2023-04-19T07:47:27;99014.63;;;11.30;79.23
7433;BME280;32233;49.500;7.764;2023-04-19T07:49:54;99014.59;;;10.81;82.37
7433;BME280;32233;49.500;7.764;2023-04-19T07:52:21;99016.06;;;10.62;84.74
7433;BME280;32233;49.500;7.764;2023-04-19T07:54:47;99022.38;;;10.82;83.53
7433;BME280;32233;49.500;7.764;2023-04-19T07:57:14;99017.03;;;10.61;84.12
7433;BME280;32233;49.500;7.764;2023-04-19T07:59:40;99015.28;;;10.47;85.75
7433;BME280;32233;49.500;7.764;2023-04-19T08:02:07;99007.44;;;10.75;84.64
7433;BME280;32233;49.500;7.764;2023-04-19T08:04:34;99008.81;;;10.71;84.68
7433;BME280;32233;49.500;7.764;2023-04-19T08:07:01;99004.31;;;11.70;80.90
7433;BME280;32233;49.500;7.764;2023-04-19T08:09:29;99017.00;;;10.97;83.10
7433;BME280;32233;49.500;7.764;2023-04-19T08:11:56;99017.94;;;10.68;85.20
7433;BME280;32233;49.500;7.764;2023-04-19T08:14:23;99017.78;;;10.33;88.22
7433;BME280;32233;49.500;7.764;2023-04-19T08:17:03;99017.25;;;9.93;90.58
7433;BME280;32233;49.500;7.764;2023-04-19T08:19:32;99015.88;;;9.98;91.63
7433;BME280;32233;49.500;7.764;2023-04-19T08:21:59;99029.63;;;9.78;92.00
7433;BME280;32233;49.500;7.764;2023-04-19T08:24:26;99024.44;;;9.70;92.96
7433;BME280;32233;49.500;7.764;2023-04-19T08:26:52;99026.19;;;9.92;91.71
7433;BME280;32233;49.500;7.764;2023-04-19T08:29:19;99011.41;;;9.83;92.49
7433;BME280;32233;49.500;7.764;2023-04-19T08:31:47;99021.78;;;10.14;90.81
7433;BME280;32233;49.500;7.764;2023-04-19T08:34:14;99002.75;;;10.55;89.84
7433;BME280;32233;49.500;7.764;2023-04-19T08:36:40;99006.56;;;10.68;88.21
7433;BME280;32233;49.500;7.764;2023-04-19T08:39:21;99003.00;;;10.60;87.28
7433;BME280;32233;49.500;7.764;2023-04-19T08:42:03;99012.84;;;10.45;88.75
7433;BME280;32233;49.500;7.764;2023-04-19T08:44:35;99015.28;;;10.47;87.33
7433;BME280;32233;49.500;7.764;2023-04-19T08:47:26;99012.88;;;10.52;88.20
7433;BME280;32233;49.500;7.764;2023-04-19T08:50:00;99014.81;;;10.43;87.55
7433;BME280;32233;49.500;7.764;2023-04-19T08:52:46;99016.75;;;10.49;87.31
7433;BME280;32233;49.500;7.764;2023-04-19T08:55:24;99011.47;;;10.34;87.37
7433;BME280;32233;49.500;7.764;2023-04-19T08:57:51;99007.09;;;10.41;86.41
7433;BME280;32233;49.500;7.764;2023-04-19T09:00:18;98996.47;;;10.56;87.00
7433;BME280;32233;49.500;7.764;2023-04-19T09:02:49;98994.09;;;10.83;85.21
7433;BME280;32233;49.500;7.764;2023-04-19T09:05:17;98996.66;;;10.98;84.42
7433;BME280;32233;49.500;7.764;2023-04-19T09:07:45;98994.22;;;11.24;82.20
7433;BME280;32233;49.500;7.764;2023-04-19T09:10:14;98982.59;;;11.19;80.76
7433;BME280;32233;49.500;7.764;2023-04-19T09:12:42;98982.91;;;11.09;82.25
7433;BME280;32233;49.500;7.764;2023-04-19T09:15:09;98983.16;;;11.42;80.96
7433;BME280;32233;49.500;7.764;2023-04-19T09:17:37;98985.97;;;11.97;77.49
7433;BME280;32233;49.500;7.764;2023-04-19T09:20:05;98987.63;;;12.11;76.87
7433;BME280;32233;49.500;7.764;2023-04-19T09:22:32;98977.50;;;12.28;76.63
7433;BME280;32233;49.500;7.764;2023-04-19T09:24:59;98972.25;;;11.52;78.27
7433;BME280;32233;49.500;7.764;2023-04-19T09:27:48;98968.88;;;11.71;77.53
7433;BME280;32233;49.500;7.764;2023-04-19T09:30:20;98972.91;;;11.04;80.55
7433;BME280;32233;49.500;7.764;2023-04-19T09:32:49;98973.53;;;11.34;79.53
7433;BME280;32233;49.500;7.764;2023-04-19T09:35:16;98967.53;;;11.19;80.76
7433;BME280;32233;49.500;7.764;2023-04-19T09:37:57;98970.50;;;11.37;79.13
7433;BME280;32233;49.500;7.764;2023-04-19T09:40:32;98961.03;;;11.22;78.15
7433;BME280;32233;49.500;7.764;2023-04-19T09:42:59;98960.44;;;11.26;78.05
7433;BME280;32233;49.500;7.764;2023-04-19T09:45:45;98962.63;;;11.44;78.14
7433;BME280;32233;49.500;7.764;2023-04-19T09:48:12;98956.75;;;11.49;77.40
7433;BME280;32233;49.500;7.764;2023-04-19T09:50:52;98957.75;;;11.48;78.10
7433;BME280;32233;49.500;7.764;2023-04-19T09:53:28;98953.00;;;11.08;78.45
7433;BME280;32233;49.500;7.764;2023-04-19T09:55:55;98949.31;;;11.37;78.38
7433;BME280;32233;49.500;7.764;2023-04-19T09:58:28;98944.31;;;11.49;77.44
7433;BME280;32233;49.500;7.764;2023-04-19T10:01:09;98940.56;;;11.37;78.49
7433;BME280;32233;49.500;7.764;2023-04-19T10:03:43;98939.44;;;11.53;77.16
7433;BME280;32233;49.500;7.764;2023-04-19T10:06:15;98940.91;;;11.62;77.62
7433;BME280;32233;49.500;7.764;2023-04-19T10:09:03;98944.44;;;11.69;76.52
7433;BME280;32233;49.500;7.764;2023-04-19T10:11:35;98946.00;;;11.98;76.16
7433;BME280;32233;49.500;7.764;2023-04-19T10:14:06;98938.28;;;12.03;74.90
7433;BME280;32233;49.500;7.764;2023-04-19T10:16:34;98940.16;;;11.68;76.92
7433;BME280;32233;49.500;7.764;2023-04-19T10:19:07;98936.78;;;11.87;76.06
7433;BME280;32233;49.500;7.764;2023-04-19T10:21:40;98935.63;;;11.97;75.56
7433;BME280;32233;49.500;7.764;2023-04-19T10:24:08;98939.84;;;11.84;76.18
7433;BME280;32233;49.500;7.764;2023-04-19T10:27:12;98937.88;;;11.30;78.57
7433;BME280;32233;49.500;7.764;2023-04-19T10:30:00;98930.81;;;11.09;79.82
7433;BME280;32233;49.500;7.764;2023-04-19T10:32:39;98942.16;;;10.75;80.82
7433;BME280;32233;49.500;7.764;2023-04-19T10:35:15;98943.22;;;10.59;81.23
7433;BME280;32233;49.500;7.764;2023-04-19T10:38:08;98945.88;;;10.59;82.79
7433;BME280;32233;49.500;7.764;2023-04-19T10:43:17;98944.53;;;10.49;83.53
7433;BME280;32233;49.500;7.764;2023-04-19T10:45:45;98939.13;;;10.35;82.98
7433;BME280;32233;49.500;7.764;2023-04-19T10:51:12;98945.41;;;10.34;83.50
7433;BME280;32233;49.500;7.764;2023-04-19T10:53:47;98941.66;;;10.44;82.86
7433;BME280;32233;49.500;7.764;2023-04-19T10:56:15;98934.38;;;10.46;81.47
7433;BME280;32233;49.500;7.764;2023-04-19T11:01:35;98925.38;;;10.89;78.25
7433;BME280;32233;49.500;7.764;2023-04-19T11:04:05;98917.03;;;10.86;74.66
7433;BME280;32233;49.500;7.764;2023-04-19T11:06:33;98910.81;;;11.00;72.70
7433;BME280;32233;49.500;7.764;2023-04-19T11:09:00;98912.66;;;11.69;71.05
7433;BME280;32233;49.500;7.764;2023-04-19T11:11:34;98907.19;;;12.52;67.26
7433;BME280;32233;49.500;7.764;2023-04-19T11:14:02;98903.75;;;12.71;64.39
7433;BME280;32233;49.500;7.764;2023-04-19T11:16:29;98904.13;;;13.01;63.67
7433;BME280;32233;49.500;7.764;2023-04-19T11:19:17;98893.75;;;13.84;58.59
7433;BME280;32233;49.500;7.764;2023-04-19T11:21:45;98883.56;;;13.75;58.46
7433;BME280;32233;49.500;7.764;2023-04-19T11:24:12;98884.50;;;13.94;55.67
7433;BME280;32233;49.500;7.764;2023-04-19T11:26:42;98870.84;;;13.83;57.79
7433;BME280;32233;49.500;7.764;2023-04-19T11:29:09;98870.31;;;14.06;57.31
7433;BME280;32233;49.500;7.764;2023-04-19T11:31:35;98861.72;;;14.43;55.89
7433;BME280;32233;49.500;7.764;2023-04-19T11:34:02;98864.22;;;13.99;55.85
7433;BME280;32233;49.500;7.764;2023-04-19T11:36:32;98861.38;;;13.49;58.11
7433;BME280;32233;49.500;7.764;2023-04-19T11:39:05;98864.50;;;13.40;58.44
7433;BME280;32233;49.500;7.764;2023-04-19T11:41:38;98859.66;;;13.75;57.11
7433;BME280;32233;49.500;7.764;2023-04-19T11:44:15;98851.91;;;14.36;54.77
7433;BME280;32233;49.500;7.764;2023-04-19T11:46:56;98852.63;;;14.25;56.92
7433;BME280;32233;49.500;7.764;2023-04-19T11:49:31;98845.19;;;14.02;56.08
7433;BME280;32233;49.500;7.764;2023-04-19T11:52:02;98850.63;;;13.82;56.54
7433;BME280;32233;49.500;7.764;2023-04-19T11:54:32;98857.53;;;13.38;58.76
7433;BME280;32233;49.500;7.764;2023-04-19T11:57:00;98845.91;;;13.40;59.35
7433;BME280;32233;49.500;7.764;2023-04-19T11:59:30;98852.44;;;13.37;59.28
7433;BME280;32233;49.500;7.764;2023-04-19T12:02:10;98844.00;;;13.60;58.08
7433;BME280;32233;49.500;7.764;2023-04-19T12:04:37;98832.59;;;13.91;59.53
7433;BME280;32233;49.500;7.764;2023-04-19T12:07:05;98832.44;;;13.79;59.28
7433;BME280;32233;49.500;7.764;2023-04-19T12:09:33;98830.31;;;13.56;62.26
7433;BME280;32233;49.500;7.764;2023-04-19T12:12:01;98824.44;;;13.48;59.56
7433;BME280;32233;49.500;7.764;2023-04-19T12:14:28;98827.75;;;13.17;60.16
7433;BME280;32233;49.500;7.764;2023-04-19T12:17:07;98830.69;;;12.69;61.88
7433;BME280;32233;49.500;7.764;2023-04-19T12:19:36;98829.09;;;12.54;62.55
7433;BME280;32233;49.500;7.764;2023-04-19T12:22:12;98822.16;;;12.67;62.23
7433;BME280;32233;49.500;7.764;2023-04-19T12:24:39;98822.50;;;12.97;61.69
7433;BME280;32233;49.500;7.764;2023-04-19T12:27:06;98806.41;;;12.85;63.18
7433;BME280;32233;49.500;7.764;2023-04-19T12:29:33;98813.06;;;13.21;61.66
7433;BME280;32233;49.500;7.764;2023-04-19T12:32:00;98813.53;;;12.91;59.55
7433;BME280;32233;49.500;7.764;2023-04-19T12:34:27;98811.25;;;13.08;58.32
7433;BME280;32233;49.500;7.764;2023-04-19T12:36:54;98806.50;;;13.75;56.60
7433;BME280;32233;49.500;7.764;2023-04-19T12:39:21;98804.66;;;15.25;52.87
7433;BME280;32233;49.500;7.764;2023-04-19T12:41:48;98792.69;;;16.48;49.08
7433;BME280;32233;49.500;7.764;2023-04-19T12:44:15;98789.47;;;16.81;47.57
7433;BME280;32233;49.500;7.764;2023-04-19T12:46:41;98787.75;;;16.75;47.31
7433;BME280;32233;49.500;7.764;2023-04-19T12:49:08;98787.75;;;16.75;47.02
7433;BME280;32233;49.500;7.764;2023-04-19T12:51:34;98778.69;;;16.41;47.34
7433;BME280;32233;49.500;7.764;2023-04-19T12:54:01;98788.81;;;16.74;45.54
7433;BME280;32233;49.500;7.764;2023-04-19T12:56:28;98782.22;;;14.59;52.48
7433;BME280;32233;49.500;7.764;2023-04-19T12:58:54;98780.31;;;14.67;51.41
7433;BME280;32233;49.500;7.764;2023-04-19T13:01:21;98768.25;;;14.14;51.95
7433;BME280;32233;49.500;7.764;2023-04-19T13:03:47;98770.19;;;15.12;50.58
7433;BME280;32233;49.500;7.764;2023-04-19T13:06:14;98756.44;;;15.94;47.79
7433;BME280;32233;49.500;7.764;2023-04-19T13:08:42;98761.00;;;15.26;47.80
7433;BME280;32233;49.500;7.764;2023-04-19T13:11:14;98753.47;;;17.07;44.04
7433;BME280;32233;49.500;7.764;2023-04-19T13:13:41;98748.78;;;16.74;43.16
7433;BME280;32233;49.500;7.764;2023-04-19T13:16:07;98720.91;;;17.51;42.18
7433;BME280;32233;49.500;7.764;2023-04-19T13:18:34;98726.69;;;17.88;41.02
7433;BME280;32233;49.500;7.764;2023-04-19T13:21:00;98736.44;;;16.85;43.08
7433;BME280;32233;49.500;7.764;2023-04-19T13:23:27;98727.22;;;17.04;41.77
7433;BME280;32233;49.500;7.764;2023-04-19T13:25:54;98729.25;;;16.62;43.08
7433;BME280;32233;49.500;7.764;2023-04-19T13:28:20;98736.53;;;15.36;43.46
7433;BME280;32233;49.500;7.764;2023-04-19T13:30:46;98734.19;;;14.91;45.19
7433;BME280;32233;49.500;7.764;2023-04-19T13:33:13;98719.91;;;14.85;44.06
7433;BME280;32233;49.500;7.764;2023-04-19T13:35:40;98721.53;;;15.05;43.14